createdAt,value
2023-04-17T00:01:16.164Z,20.55
2023-04-17T00:03:43.177Z,13.38
2023-04-17T00:06:09.967Z,7.45
2023-04-17T00:08:36.665Z,6.22
2023-04-17T00:11:07.814Z,8.63
2023-04-17T00:13:36.286Z,8.48
2023-04-17T00:16:03.353Z,10.05
2023-04-17T00:18:30.130Z,9.25
2023-04-17T00:20:57.185Z,7.47
2023-04-17T00:23:25.709Z,8.65
2023-04-17T00:25:52.343Z,7.38
2023-04-17T00:28:19.410Z,9.45
2023-04-17T00:30:46.802Z,13.20
2023-04-17T00:33:13.662Z,10.45
2023-04-17T00:35:40.330Z,11.90
2023-04-17T00:38:09.151Z,9.07
2023-04-17T00:40:36.440Z,8.68
2023-04-17T00:43:04.710Z,6.80
2023-04-17T00:45:31.569Z,10.73
2023-04-17T00:48:00.622Z,12.65
2023-04-17T00:50:31.443Z,6.60
2023-04-17T00:52:59.616Z,9.40
2023-04-17T00:55:27.621Z,12.93
2023-04-17T00:57:55.657Z,9.32
2023-04-17T01:00:22.756Z,10.13
2023-04-17T01:02:49.489Z,12.50
2023-04-17T01:05:16.218Z,14.85
2023-04-17T01:07:43.058Z,7.88
2023-04-17T01:10:10.483Z,11.73
2023-04-17T01:12:37.235Z,12.40
2023-04-17T01:15:04.828Z,13.45
2023-04-17T01:17:31.636Z,9.48
2023-04-17T01:19:58.383Z,8.98
2023-04-17T01:22:25.472Z,8.68
2023-04-17T01:24:52.160Z,9.38
2023-04-17T01:27:18.771Z,12.57
2023-04-17T01:29:45.482Z,6.57
2023-04-17T01:32:12.355Z,11.95
2023-04-17T01:34:39.030Z,9.05
2023-04-17T01:37:05.824Z,8.63
2023-04-17T01:39:32.510Z,8.60
2023-04-17T01:41:59.228Z,7.88
2023-04-17T01:44:25.922Z,10.70
2023-04-17T01:46:56.853Z,6.25
2023-04-17T01:49:23.518Z,7.07
2023-04-17T01:51:50.124Z,6.85
2023-04-17T01:54:16.794Z,9.40
2023-04-17T01:56:43.457Z,5.82
2023-04-17T01:59:11.053Z,7.13
2023-04-17T02:01:38.113Z,6.07
2023-04-17T02:04:06.175Z,6.43
2023-04-17T02:06:35.964Z,4.72
2023-04-17T02:09:03.124Z,9.40
2023-04-17T02:11:29.817Z,12.60
2023-04-17T02:13:56.443Z,13.07
2023-04-17T02:16:23.231Z,10.00
2023-04-17T02:18:52.061Z,10.15
2023-04-17T02:21:18.737Z,9.93
2023-04-17T02:23:46.746Z,9.65
2023-04-17T02:26:14.800Z,9.32
2023-04-17T02:28:44.290Z,11.75
2023-04-17T02:31:12.052Z,9.55
2023-04-17T02:33:38.861Z,11.07
2023-04-17T02:36:06.410Z,10.45
2023-04-17T02:38:33.135Z,11.75
2023-04-17T02:41:00.299Z,11.88
2023-04-17T02:43:26.928Z,8.98
2023-04-17T02:45:53.569Z,8.75
2023-04-17T02:48:20.388Z,7.70
2023-04-17T02:50:47.065Z,9.15
2023-04-17T02:53:14.754Z,10.98
2023-04-17T02:55:41.382Z,10.45
2023-04-17T02:58:08.279Z,7.57
2023-04-17T03:00:39.390Z,10.93
2023-04-17T03:03:06.377Z,15.43
2023-04-17T03:05:33.388Z,13.10
2023-04-17T03:08:00.220Z,12.45
2023-04-17T03:10:26.922Z,11.30
2023-04-17T03:12:53.698Z,12.95
2023-04-17T03:15:20.443Z,10.15
2023-04-17T03:17:47.391Z,12.30
2023-04-17T03:20:15.963Z,6.97
2023-04-17T03:22:42.805Z,7.28
2023-04-17T03:25:10.039Z,11.45
2023-04-17T03:27:36.734Z,13.80
2023-04-17T03:30:03.668Z,5.72
2023-04-17T03:32:30.369Z,9.65
2023-04-17T03:34:57.012Z,8.68
2023-04-17T03:37:23.709Z,7.05
2023-04-17T03:39:50.410Z,11.80
2023-04-17T03:42:17.083Z,14.18
2023-04-17T03:44:43.712Z,9.85
2023-04-17T03:47:10.725Z,16.83
2023-04-17T03:49:37.452Z,7.93
2023-04-17T03:52:05.330Z,7.55
2023-04-17T03:54:35.488Z,6.65
2023-04-17T03:57:03.475Z,6.82
2023-04-17T03:59:31.860Z,9.05
2023-04-17T04:01:58.918Z,5.80
2023-04-17T04:04:26.216Z,4.93
2023-04-17T04:06:54.619Z,7.13
2023-04-17T04:09:21.626Z,6.60
2023-04-17T04:11:48.514Z,6.22
2023-04-17T04:14:15.287Z,9.88
2023-04-17T04:16:42.320Z,5.50
2023-04-17T04:19:09.392Z,7.68
2023-04-17T04:21:36.571Z,5.95
2023-04-17T04:24:03.403Z,6.88
2023-04-17T04:26:30.048Z,19.40
2023-04-17T04:28:56.824Z,7.85
2023-04-17T04:31:29.768Z,6.18
2023-04-17T04:33:58.318Z,6.38
2023-04-17T04:36:25.370Z,5.10
2023-04-17T04:38:52.036Z,7.25
2023-04-17T04:41:20.050Z,4.85
2023-04-17T04:43:46.743Z,7.13
2023-04-17T04:46:13.476Z,7.22
2023-04-17T04:48:42.714Z,7.53
2023-04-17T04:53:38.995Z,7.50
2023-04-17T04:56:06.072Z,10.35
2023-04-17T04:58:32.742Z,10.18
2023-04-17T05:00:59.435Z,7.65
2023-04-17T05:03:26.458Z,6.38
2023-04-17T05:05:53.242Z,7.03
2023-04-17T05:08:20.437Z,8.05
2023-04-17T05:10:47.248Z,8.75
2023-04-17T05:13:13.994Z,11.50
2023-04-17T05:15:41.615Z,10.00
2023-04-17T05:18:08.318Z,8.25
2023-04-17T05:20:36.405Z,10.90
2023-04-17T05:23:03.210Z,10.93
2023-04-17T05:25:29.896Z,18.95
2023-04-17T05:28:03.213Z,11.48
2023-04-17T05:30:29.832Z,10.75
2023-04-17T05:32:56.645Z,12.82
2023-04-17T05:35:23.349Z,9.90
2023-04-17T05:37:50.248Z,15.55
2023-04-17T05:40:16.951Z,11.57
2023-04-17T05:42:43.630Z,16.17
2023-04-17T05:45:18.136Z,14.38
2023-04-17T05:47:44.972Z,13.40
2023-04-17T05:50:11.813Z,11.43
2023-04-17T05:52:39.632Z,13.27
2023-04-17T05:55:06.895Z,13.63
2023-04-17T05:57:33.505Z,16.95
2023-04-17T06:00:00.340Z,10.77
2023-04-17T06:02:27.376Z,12.55
2023-04-17T06:04:54.559Z,13.82
2023-04-17T06:07:21.666Z,17.00
2023-04-17T06:09:48.277Z,12.75
2023-04-17T06:12:16.358Z,12.95
2023-04-17T06:14:43.621Z,12.88
2023-04-17T06:17:10.679Z,11.85
2023-04-17T06:19:37.431Z,7.75
2023-04-17T06:22:04.147Z,10.82
2023-04-17T06:24:31.216Z,10.70
2023-04-17T06:26:58.083Z,10.15
2023-04-17T06:29:24.753Z,8.98
2023-04-17T06:31:51.399Z,8.15
2023-04-17T06:34:18.112Z,9.00
2023-04-17T06:36:44.783Z,9.30
2023-04-17T06:39:11.761Z,7.53
2023-04-17T06:41:38.667Z,8.63
2023-04-17T06:44:05.825Z,9.13
2023-04-17T06:46:32.542Z,5.78
2023-04-17T06:48:59.786Z,5.38
2023-04-17T06:51:27.798Z,9.05
2023-04-17T06:53:54.470Z,9.35
2023-04-17T06:56:21.541Z,7.75
2023-04-17T06:58:48.252Z,12.10
2023-04-17T07:01:15.366Z,11.30
2023-04-17T07:03:43.418Z,11.73
2023-04-17T07:06:10.888Z,12.50
2023-04-17T07:08:37.580Z,10.05
2023-04-17T07:11:04.292Z,9.85
2023-04-17T07:13:34.050Z,17.15
2023-04-17T07:16:01.459Z,10.55
2023-04-17T07:18:31.489Z,15.50
2023-04-17T07:20:58.177Z,8.93
2023-04-17T07:23:25.362Z,10.38
2023-04-17T07:25:52.006Z,12.55
2023-04-17T07:28:18.802Z,10.00
2023-04-17T07:30:45.713Z,10.65
2023-04-17T07:33:12.562Z,9.95
2023-04-17T07:35:39.670Z,10.60
2023-04-17T07:38:06.386Z,9.77
2023-04-17T07:40:35.986Z,9.43
2023-04-17T07:43:02.660Z,9.32
2023-04-17T07:45:29.308Z,7.10
2023-04-17T07:47:56.015Z,9.57
2023-04-17T07:50:22.870Z,8.43
2023-04-17T07:52:49.548Z,13.73
2023-04-17T07:55:16.795Z,6.85
2023-04-17T07:57:43.609Z,9.43
2023-04-17T08:00:13.771Z,11.35
2023-04-17T08:02:41.817Z,14.10
2023-04-17T08:05:09.631Z,11.45
2023-04-17T08:07:37.203Z,13.23
2023-04-17T08:10:05.283Z,11.35
2023-04-17T08:12:32.125Z,9.95
2023-04-17T08:14:58.921Z,12.50
2023-04-17T08:17:26.133Z,7.07
2023-04-17T08:19:57.636Z,9.38
2023-04-17T08:22:26.057Z,10.48
2023-04-17T08:24:57.917Z,9.90
2023-04-17T08:29:56.638Z,6.68
2023-04-17T08:32:23.450Z,7.83
2023-04-17T08:34:50.174Z,7.95
2023-04-17T08:37:17.006Z,8.68
2023-04-17T08:39:43.760Z,11.02
2023-04-17T08:42:15.859Z,9.98
2023-04-17T08:44:44.305Z,10.48
2023-04-17T08:47:12.809Z,9.50
2023-04-17T08:49:43.482Z,7.07
2023-04-17T08:52:10.962Z,8.75
2023-04-17T08:54:39.080Z,6.38
2023-04-17T08:57:06.312Z,10.35
2023-04-17T08:59:33.341Z,3.08
2023-04-17T09:02:01.672Z,4.90
2023-04-17T09:04:38.864Z,4.43
2023-04-17T09:07:07.291Z,6.32
2023-04-17T09:09:48.195Z,3.30
2023-04-17T09:12:14.893Z,5.80
2023-04-17T09:14:41.664Z,5.00
2023-04-17T09:17:08.593Z,4.85
2023-04-17T09:19:35.500Z,5.13
2023-04-17T09:22:19.614Z,6.80
2023-04-17T09:24:46.458Z,12.35
2023-04-17T09:27:29.297Z,3.33
2023-04-17T09:30:04.459Z,7.18
2023-04-17T09:32:33.528Z,2.75
2023-04-17T09:35:02.324Z,3.47
2023-04-17T09:37:51.026Z,3.33
2023-04-17T09:40:19.812Z,2.00
2023-04-17T09:43:00.730Z,3.17
2023-04-17T09:45:33.583Z,6.13
2023-04-17T09:48:01.204Z,3.45
2023-04-17T09:50:28.040Z,3.42
2023-04-17T09:52:56.080Z,4.72
2023-04-17T09:55:32.663Z,3.50
2023-04-17T09:58:02.787Z,5.53
2023-04-17T10:00:30.107Z,4.72
2023-04-17T10:03:00.302Z,4.07
2023-04-17T10:05:29.346Z,5.32
2023-04-17T10:07:56.659Z,4.80
2023-04-17T10:10:34.209Z,7.05
2023-04-17T10:13:03.153Z,6.05
2023-04-17T10:15:30.600Z,3.30
2023-04-17T10:18:24.262Z,4.25
2023-04-17T10:20:53.649Z,6.05
2023-04-17T10:23:31.737Z,4.43
2023-04-17T10:26:26.531Z,4.05
2023-04-17T10:28:55.996Z,2.10
2023-04-17T10:31:26.013Z,6.43
2023-04-17T10:33:56.913Z,2.72
2023-04-17T10:36:38.849Z,5.93
2023-04-17T10:42:04.744Z,1.88
2023-04-17T10:44:39.454Z,2.97
2023-04-17T10:47:07.397Z,4.95
2023-04-17T10:49:51.273Z,3.55
2023-04-17T10:52:34.557Z,3.35
2023-04-17T10:55:16.377Z,3.55
2023-04-17T11:00:34.289Z,2.70
2023-04-17T11:03:02.043Z,5.97
2023-04-17T11:05:29.349Z,6.32
2023-04-17T11:07:56.551Z,4.30
2023-04-17T11:10:23.348Z,9.80
2023-04-17T11:12:56.739Z,7.15
2023-04-17T11:15:31.351Z,5.70
2023-04-17T11:17:59.422Z,5.80
2023-04-17T11:20:30.275Z,6.80
2023-04-17T11:23:04.506Z,5.53
2023-04-17T11:25:33.829Z,8.77
2023-04-17T11:28:06.556Z,9.07
2023-04-17T11:30:40.736Z,7.75
2023-04-17T11:33:08.300Z,9.00
2023-04-17T11:35:44.038Z,3.75
2023-04-17T11:38:20.782Z,6.07
2023-04-17T11:40:52.888Z,5.30
2023-04-17T11:43:21.483Z,5.78
2023-04-17T11:45:51.148Z,3.53
2023-04-17T11:48:22.699Z,5.15
2023-04-17T11:50:50.099Z,4.70
2023-04-17T11:53:17.509Z,9.70
2023-04-17T11:55:45.081Z,8.90
2023-04-17T11:58:14.074Z,5.60
2023-04-17T12:00:43.034Z,7.93
2023-04-17T12:03:33.591Z,9.90
2023-04-17T12:06:03.062Z,7.20
2023-04-17T12:08:31.134Z,6.53
2023-04-17T12:10:58.770Z,3.58
2023-04-17T12:13:26.365Z,7.90
2023-04-17T12:15:53.168Z,6.47
2023-04-17T12:18:19.932Z,5.45
2023-04-17T12:20:46.601Z,8.65
2023-04-17T12:23:14.324Z,7.38
2023-04-17T12:25:42.664Z,18.63
2023-04-17T12:28:09.366Z,8.00
2023-04-17T12:30:39.678Z,8.27
2023-04-17T12:33:07.245Z,7.28
2023-04-17T12:35:34.093Z,6.97
2023-04-17T12:38:01.017Z,6.07
2023-04-17T12:40:27.743Z,5.32
2023-04-17T12:42:54.457Z,7.13
2023-04-17T12:45:21.313Z,5.00
2023-04-17T12:47:48.284Z,5.10
2023-04-17T12:50:15.089Z,6.38
2023-04-17T12:52:42.099Z,11.82
2023-04-17T12:55:09.665Z,11.90
2023-04-17T12:57:36.824Z,13.70
2023-04-17T13:00:06.697Z,9.45
2023-04-17T13:02:35.422Z,4.40
2023-04-17T13:05:07.842Z,10.57
2023-04-17T13:07:34.576Z,5.20
2023-04-17T13:10:01.302Z,7.32
2023-04-17T13:12:28.009Z,8.20
2023-04-17T13:14:57.256Z,11.20
2023-04-17T13:17:24.924Z,11.25
2023-04-17T13:19:51.986Z,7.97
2023-04-17T13:22:20.688Z,7.05
2023-04-17T13:24:47.487Z,17.67
2023-04-17T13:27:14.198Z,6.70
2023-04-17T13:29:42.664Z,4.95
2023-04-17T13:32:09.858Z,8.95
2023-04-17T13:34:37.605Z,9.02
2023-04-17T13:37:04.356Z,7.07
2023-04-17T13:39:32.024Z,8.98
2023-04-17T13:41:58.696Z,11.38
2023-04-17T13:44:25.727Z,6.30
2023-04-17T13:46:52.884Z,6.47
2023-04-17T13:49:19.867Z,7.65
2023-04-17T13:51:47.118Z,8.15
2023-04-17T13:54:13.807Z,11.00
2023-04-17T13:56:42.415Z,10.60
2023-04-17T13:59:10.578Z,6.68
2023-04-17T14:01:37.840Z,9.77
2023-04-17T14:04:05.213Z,6.50
2023-04-17T14:06:34.813Z,14.88
2023-04-17T14:09:01.790Z,10.40
2023-04-17T14:11:28.709Z,5.68
2023-04-17T14:13:55.353Z,10.13
2023-04-17T14:16:22.081Z,3.42
2023-04-17T14:18:49.399Z,5.10
2023-04-17T14:21:16.948Z,10.38
2023-04-17T14:23:45.222Z,7.85
2023-04-17T14:26:12.601Z,13.98
2023-04-17T14:28:39.443Z,4.88
2023-04-17T14:31:06.417Z,7.57
2023-04-17T14:33:33.092Z,7.45
2023-04-17T14:35:59.834Z,9.23
2023-04-17T14:38:26.527Z,15.50
2023-04-17T14:40:53.354Z,9.90
2023-04-17T14:43:20.020Z,17.13
2023-04-17T14:45:46.867Z,19.10
2023-04-17T14:48:13.719Z,4.78
2023-04-17T14:50:40.490Z,6.07
2023-04-17T14:53:07.145Z,5.45
2023-04-17T14:55:34.421Z,3.90
2023-04-17T14:58:01.024Z,7.78
2023-04-17T15:00:27.641Z,5.18
2023-04-17T15:02:54.498Z,11.95
2023-04-17T15:05:22.501Z,9.32
2023-04-17T15:07:49.225Z,9.93
2023-04-17T15:10:16.236Z,4.85
2023-04-17T15:12:43.998Z,4.47
2023-04-17T15:15:11.143Z,8.00
2023-04-17T15:17:37.814Z,4.40
2023-04-17T15:20:05.826Z,3.88
2023-04-17T15:22:32.738Z,6.10
2023-04-17T15:24:59.426Z,6.75
2023-04-17T15:27:26.119Z,7.90
2023-04-17T15:29:52.834Z,6.72
2023-04-17T15:32:19.607Z,9.25
2023-04-17T15:34:46.430Z,4.78
2023-04-17T15:37:13.164Z,5.20
2023-04-17T15:39:40.054Z,4.13
2023-04-17T15:42:08.695Z,10.52
2023-04-17T15:44:37.550Z,7.85
2023-04-17T15:47:05.669Z,5.68
2023-04-17T15:49:32.882Z,5.00
2023-04-17T15:51:59.838Z,10.10
2023-04-17T15:54:26.893Z,7.20
2023-04-17T15:56:53.734Z,5.53
2023-04-17T15:59:20.869Z,6.57
2023-04-17T16:01:48.255Z,11.05
2023-04-17T16:04:15.304Z,10.95
2023-04-17T16:06:42.142Z,9.48
2023-04-17T16:09:09.872Z,11.82
2023-04-17T16:11:36.624Z,8.32
2023-04-17T16:14:03.479Z,11.02
2023-04-17T16:16:30.141Z,5.55
2023-04-17T16:18:57.627Z,12.50
2023-04-17T16:21:24.384Z,9.88
2023-04-17T16:23:51.035Z,8.70
2023-04-17T16:26:17.775Z,10.88
2023-04-17T16:28:45.812Z,12.52
2023-04-17T16:31:16.365Z,9.98
2023-04-17T16:33:43.813Z,12.05
2023-04-17T16:36:10.470Z,10.45
2023-04-17T16:38:38.750Z,10.13
2023-04-17T16:41:05.547Z,11.32
2023-04-17T16:43:32.219Z,5.65
2023-04-17T16:46:01.220Z,13.80
2023-04-17T16:48:30.154Z,9.98
2023-04-17T16:51:04.781Z,6.80
2023-04-17T16:53:31.869Z,10.02
2023-04-17T16:55:58.656Z,8.65
2023-04-17T16:58:25.241Z,8.43
2023-04-17T17:00:52.007Z,10.82
2023-04-17T17:03:20.094Z,5.95
2023-04-17T17:05:47.117Z,8.40
2023-04-17T17:08:14.530Z,11.05
2023-04-17T17:10:41.282Z,5.88
2023-04-17T17:13:07.970Z,6.57
2023-04-17T17:15:34.785Z,10.27
2023-04-17T17:18:01.569Z,14.23
2023-04-17T17:20:28.354Z,6.72
2023-04-17T17:22:55.010Z,10.30
2023-04-17T17:25:23.084Z,11.07
2023-04-17T17:27:49.844Z,8.32
2023-04-17T17:30:16.752Z,13.52
2023-04-17T17:32:43.470Z,11.82
2023-04-17T17:35:10.222Z,8.88
2023-04-17T17:37:36.951Z,10.43
2023-04-17T17:40:04.410Z,9.07
2023-04-17T17:42:31.076Z,15.68
2023-04-17T17:44:57.718Z,12.82
2023-04-17T17:47:24.392Z,13.55
2023-04-17T17:49:51.007Z,13.38
2023-04-17T17:52:17.820Z,11.25
2023-04-17T17:54:44.454Z,13.18
2023-04-17T17:57:11.199Z,7.68
2023-04-17T17:59:37.855Z,5.07
2023-04-17T18:02:04.879Z,6.57
2023-04-17T18:04:31.712Z,3.33
2023-04-17T18:06:58.359Z,8.05
2023-04-17T18:09:25.282Z,6.45
2023-04-17T18:11:51.962Z,7.25
2023-04-17T18:14:18.618Z,11.93
2023-04-17T18:16:45.502Z,8.32
2023-04-17T18:19:12.301Z,8.45
2023-04-17T18:21:39.288Z,7.28
2023-04-17T18:24:06.363Z,5.60
2023-04-17T18:26:34.092Z,5.60
2023-04-17T18:29:00.890Z,8.63
2023-04-17T18:31:28.440Z,8.50
2023-04-17T18:33:55.194Z,9.32
2023-04-17T18:36:21.852Z,10.93
2023-04-17T18:38:48.650Z,9.05
2023-04-17T18:41:15.345Z,6.90
2023-04-17T18:43:43.029Z,8.20
2023-04-17T18:46:09.694Z,7.75
2023-04-17T18:48:36.474Z,5.85
2023-04-17T18:51:14.571Z,5.63
2023-04-17T18:53:41.550Z,5.70
2023-04-17T18:56:09.256Z,4.35
2023-04-17T18:58:37.699Z,4.10
2023-04-17T19:01:06.077Z,3.85
2023-04-17T19:03:33.087Z,10.73
2023-04-17T19:05:59.818Z,4.55
2023-04-17T19:08:26.493Z,6.70
2023-04-17T19:10:53.167Z,5.63
2023-04-17T19:13:19.910Z,3.10
2023-04-17T19:15:46.508Z,5.10
2023-04-17T19:18:13.224Z,9.50
2023-04-17T19:20:41.270Z,7.70
2023-04-17T19:23:09.362Z,3.78
2023-04-17T19:25:38.764Z,4.30
2023-04-17T19:28:05.865Z,6.53
2023-04-17T19:30:32.540Z,6.57
2023-04-17T19:32:59.414Z,8.27
2023-04-17T19:35:26.455Z,9.00
2023-04-17T19:37:53.171Z,7.35
2023-04-17T19:40:24.893Z,7.00
2023-04-17T19:42:52.544Z,7.22
2023-04-17T19:45:20.904Z,6.00
2023-04-17T19:47:55.001Z,8.25
2023-04-17T19:50:27.385Z,7.30
2023-04-17T19:52:55.169Z,8.65
2023-04-17T19:55:21.980Z,7.60
2023-04-17T19:57:50.673Z,6.45
2023-04-17T20:00:17.814Z,10.10
2023-04-17T20:02:44.784Z,12.65
2023-04-17T20:05:12.235Z,6.13
2023-04-17T20:07:38.970Z,5.65
2023-04-17T20:10:06.927Z,6.50
2023-04-17T20:12:33.863Z,6.78
2023-04-17T20:15:01.129Z,9.80
2023-04-17T20:17:27.866Z,8.57
2023-04-17T20:19:54.564Z,11.20
2023-04-17T20:22:21.221Z,12.07
2023-04-17T20:24:51.109Z,9.63
2023-04-17T20:27:18.093Z,11.32
2023-04-17T20:29:45.056Z,10.40
2023-04-17T20:32:11.956Z,11.77
2023-04-17T20:34:38.582Z,10.38
2023-04-17T20:37:05.297Z,8.13
2023-04-17T20:39:32.245Z,7.25
2023-04-17T20:42:01.999Z,7.13
2023-04-17T20:44:28.704Z,11.80
2023-04-17T20:46:55.354Z,6.47
2023-04-17T20:49:22.084Z,8.82
2023-04-17T20:51:48.918Z,14.48
2023-04-17T20:54:15.788Z,14.38
2023-04-17T20:56:43.418Z,8.05
2023-04-17T20:59:10.765Z,10.65
2023-04-17T21:01:37.481Z,11.50
2023-04-17T21:04:04.465Z,10.07
2023-04-17T21:06:31.225Z,9.75
2023-04-17T21:08:57.993Z,6.38
2023-04-17T21:11:24.832Z,10.95
2023-04-17T21:13:51.534Z,9.25
2023-04-17T21:16:18.186Z,14.07
2023-04-17T21:18:45.389Z,14.23
2023-04-17T21:21:12.046Z,8.68
2023-04-17T21:23:38.661Z,12.88
2023-04-17T21:26:05.310Z,22.00
2023-04-17T21:28:33.143Z,18.45
2023-04-17T21:30:59.786Z,12.60
2023-04-17T21:33:26.421Z,14.95
2023-04-17T21:35:53.101Z,14.38
2023-04-17T21:38:19.758Z,10.68
2023-04-17T21:43:18.320Z,9.50
2023-04-17T21:45:44.983Z,16.00
2023-04-17T21:48:11.584Z,8.13
2023-04-17T21:50:39.475Z,7.28
2023-04-17T21:53:07.821Z,6.78
2023-04-17T21:55:35.217Z,10.98
2023-04-17T21:58:01.984Z,9.88
2023-04-17T22:00:28.700Z,9.25
2023-04-17T22:02:55.423Z,11.75
2023-04-17T22:05:22.158Z,11.35
2023-04-17T22:07:55.055Z,7.40
2023-04-17T22:10:23.690Z,8.07
2023-04-17T22:12:51.280Z,8.95
2023-04-17T22:15:18.013Z,9.73
2023-04-17T22:17:44.749Z,7.63
2023-04-17T22:20:11.986Z,13.68
2023-04-17T22:22:38.630Z,8.13
2023-04-17T22:25:05.832Z,9.95
2023-04-17T22:27:32.476Z,8.23
2023-04-17T22:29:59.163Z,8.80
2023-04-17T22:32:25.938Z,19.05
2023-04-17T22:34:52.581Z,9.02
2023-04-17T22:37:19.381Z,10.75
2023-04-17T22:39:46.389Z,13.77
2023-04-17T22:42:13.006Z,11.10
2023-04-17T22:44:41.829Z,11.68
2023-04-17T22:47:08.434Z,15.07
2023-04-17T22:49:38.068Z,12.13
2023-04-17T22:52:06.256Z,11.23
2023-04-17T22:54:34.111Z,15.13
2023-04-17T22:57:02.385Z,12.68
2023-04-17T22:59:29.958Z,14.43
2023-04-17T23:01:56.821Z,13.23
2023-04-17T23:04:24.186Z,12.55
2023-04-17T23:06:50.905Z,14.35
2023-04-17T23:09:18.742Z,16.15
2023-04-17T23:11:45.488Z,13.07
2023-04-17T23:14:12.391Z,15.45
2023-04-17T23:16:39.334Z,14.60
2023-04-17T23:19:06.003Z,16.88
2023-04-17T23:21:32.733Z,17.60
2023-04-17T23:23:59.412Z,17.67
2023-04-17T23:26:26.103Z,17.65
2023-04-17T23:28:52.788Z,20.00
2023-04-17T23:31:19.467Z,18.85
2023-04-17T23:33:48.955Z,21.02
2023-04-17T23:36:15.660Z,25.10
2023-04-17T23:38:42.628Z,25.90
2023-04-17T23:41:09.331Z,22.33
2023-04-17T23:43:36.009Z,22.08
2023-04-17T23:46:02.708Z,24.95
2023-04-17T23:48:29.372Z,25.92
2023-04-17T23:50:56.122Z,26.83
2023-04-17T23:53:22.936Z,28.85
2023-04-17T23:55:49.562Z,27.42
2023-04-17T23:58:16.255Z,28.95
